84.9°F
Current conditions from King Hill
Updated every 5 minutes
 
  Tuesday July 22, 2014

Observations for Westford

Westford

44° 37' 39"N, 73° 02' 29"W, Elevation 850 ft.
Eastern Time

Hourly observations for the last 72 hours

Date Time Temperature (F) Humi-
dity

(%)
Wind
(mph)
Pressure Rain (in)
Air Dew 6 Hour 1 Hr 3 Hr 6 Hr Day
Alt
(in)
Sea
Level

(mb)
Max Min
22 17:00 84.0 69.6 62 SSW 0 G 1 29.90 1012.7 0.00
22 16:00 85.3 67.8 56 SSW 0 G 3 29.93 1013.6 0.00
22 15:00 84.4 66.0 54 WNW 0 G 5 29.95 1014.3 0.00
22 14:00 82.9 68.1 83.6 69.3 61 W 0 G 8 29.97 1014.8 0.00
22 13:00 81.7 67.0 61 WSW 1 G 7 29.98 1015.2 0.00
22 12:00 81.8 68.9 65 SW 2 G 8 29.99 1015.7 0.00
22 11:00 80.3 69.6 70 S 0 G 11 30.01 1016.5 0.00
22 10:00 78.2 68.8 73 S 0 G 5 30.04 1017.2 0.00
22 09:00 74.8 68.2 80 SSW 1 G 7 30.03 1017.0 0.00
22 08:00 69.3 64.9 69.4 61.4 86 SSW 1 G 8 30.04 1017.2 0.00
22 07:00 64.8 63.0 94 SSW 0 G 3 30.03 1017.0 0.00
22 06:00 62.0 61.1 97 SSW 0 G 4 30.03 1017.1 0.00
22 05:00 62.1 60.7 95 Calm 30.03 1017.1 0.00
22 04:00 62.8 61.6 96 SSW 0 G 1 30.03 1017.0 0.00
22 03:00 63.1 61.3 94 Calm 30.03 1017.0 0.00
22 02:00 63.9 61.8 70.6 63.9 93 Calm 30.03 1017.0 0.00
22 01:00 64.1 61.7 92 Calm 30.04 1017.3 0.00
22 00:00 66.1 62.4 88 Calm 30.04 1017.3 0.00
21 23:00 68.7 63.0 82 SSW 0 G 3 30.04 1017.2 0.00
21 22:00 69.4 63.3 81 Calm 30.04 1017.4 0.00
21 21:00 69.4 63.3 81 Calm 30.04 1017.2 0.00
21 20:00 70.6 64.8 84.5 70.6 82 Calm 30.02 1016.7 0.00
21 19:00 78.7 67.7 69 Calm 30.03 1016.8 0.00
21 18:00 81.6 62.8 53 SSW 0 G 1 30.02 1016.7 0.00
21 17:00 84.3 61.9 47 WNW 0 G 4 30.03 1016.9 0.00
21 16:00 84.3 62.5 48 SSW 0 G 1 30.04 1017.4 0.00
21 15:00 82.9 64.6 54 SE 0 G 4 30.05 1017.6 0.00
21 14:00 81.6 63.9 81.6 67.4 55 W 0 G 2 30.06 1018.1 0.00
21 13:00 80.0 65.4 61 SSE 0 G 2 30.08 1018.6 0.00
21 12:00 78.7 65.1 63 W 0 G 5 30.09 1018.9 0.00
21 11:00 75.8 64.1 67 SSW 1 G 7 30.09 1019.2 0.00
21 10:00 73.0 63.4 72 S 0 G 10 30.10 1019.4 0.00
21 09:00 69.5 61.2 75 SW 0 G 10 30.10 1019.5 0.00
21 08:00 67.4 59.6 67.4 59.0 76 SSW 1 G 5 30.10 1019.3 0.00
21 07:00 63.5 58.2 83 SSW 0 G 1 30.08 1018.8 0.00
21 06:00 60.0 55.2 84 SSW 1 G 4 30.08 1018.7 0.00
21 05:00 59.2 54.7 85 Calm 30.07 1018.4 0.00
21 04:00 59.9 55.1 84 SSW 0 G 1 30.06 1017.9 0.00
21 03:00 59.3 55.4 87 Calm 30.06 1017.9 0.00
21 02:00 60.2 56.0 70.0 59.6 86 Calm 30.06 1018.1 0.00
21 01:00 61.5 56.0 82 Calm 30.07 1018.2 0.00
21 00:00 62.7 56.1 79 SSW 0 G 1 30.06 1018.1 0.00
20 23:00 61.8 55.9 81 SSW 0 G 1 30.07 1018.2 0.00
20 22:00 66.1 57.2 73 SSW 0 G 1 30.06 1018.0 0.00
20 21:00 67.5 57.4 70 Calm 30.05 1017.7 0.00
20 20:00 70.0 59.4 80.5 70.0 69 Calm 30.05 1017.6 0.00
20 19:00 74.8 60.9 62 SSW 0 G 1 30.04 1017.3 0.00
20 18:00 79.5 61.9 55 SSW 1 G 4 30.03 1017.0 0.00
20 17:00 79.8 61.7 54 SSW 0 G 4 30.03 1017.1 0.00
20 16:00 79.8 60.6 52 SSW 0 G 3 30.05 1017.5 0.00
20 15:00 79.1 62.1 56 SSW 0 G 4 30.06 1017.8 0.00
20 14:00 77.7 61.3 78.7 66.3 57 S 0 G 7 30.07 1018.3 0.00
20 13:00 77.9 59.9 54 SSW 0 G 1 30.08 1018.8 0.00
20 12:00 75.6 60.8 60 SW 0 G 8 30.09 1019.2 0.00
20 11:00 74.9 63.2 67 S 0 G 10 30.11 1019.6 0.00
20 10:00 73.6 62.4 68 NNW 0 G 9 30.11 1019.8 0.00
20 09:00 70.9 62.2 74 SW 0 G 7 30.12 1019.9 0.00
20 08:00 66.3 60.0 66.3 55.1 80 SSW 0 G 6 30.12 1019.9 0.00
20 07:00 57.7 56.9 97 Calm 30.12 1019.9 0.00
20 06:00 55.6 54.8 97 Calm 30.11 1019.5 0.00
20 05:00 55.5 54.7 97 Calm 30.10 1019.4 0.00
20 04:00 55.5 54.4 96 Calm 30.10 1019.5 0.00
20 03:00 56.7 55.0 94 Calm 30.11 1019.7 0.00
20 02:00 59.6 57.9 67.2 59.6 94 Calm 30.12 1019.9 0.00
20 01:00 60.1 58.4 94 Calm 30.12 1020.1 0.00
20 00:00 60.1 58.4 94 Calm 30.12 1020.1 0.00
19 23:00 61.4 58.8 91 Calm 30.13 1020.3 0.00
19 22:00 62.9 59.3 88 Calm 30.14 1020.7 0.00
19 21:00 63.2 58.9 86 Calm 30.14 1020.5 0.00
19 20:00 67.2 61.2 78.7 67.1 81 Calm 30.13 1020.5 0.00
19 19:00 68.9 63.5 83 Calm 30.14 1020.6 0.00
19 18:00 72.1 64.5 77 Calm 30.13 1020.3 0.00

Data generated by WxSolution Version 1.8.7.2, Build 2014.02.15.


 
 
Current Radar Loop:

Copyright © WestfordWeather.net 2007-2014. All rights reserved.